Bordeaux-Mérignac Airport

LFBD · Gironda, Nouvelle-Aquitaine, Francia

METAR pasados LFBD · Bordeaux-Mérignac Airport

A continuación puedes ver los METAR de los últimos días. Selecciona un año para ver los METAR más antiguos, desde el año 2007 en adelante.

5 de diciembre de 2022

Hora Código Tiempo Temp. Visibilidad Cielo nuboso Viento METAR/SPECI
11:00
V
5 °C 10 km+ - 100° 100° 8 kt METAR LFBD 051000Z AUTO 10008KT CAVOK 05/03 Q1018 NOSIG
10:30
V
5 °C 10 km+ - 100° 100° 8 kt METAR LFBD 050930Z AUTO 10008KT 070V130 CAVOK 05/02 Q1018 NOSIG
10:00
V
4 °C 9 km - 070° 070° 7 kt METAR LFBD 050900Z AUTO 07007KT 9000 NSC 04/03 Q1018 NOSIG
09:30
M
3 °C 7 km - 080° 080° 5 kt METAR LFBD 050830Z AUTO 08005KT 010V090 7000 NSC 03/02 Q1018 NOSIG
09:00
M
2 °C 7 km - 110° 110° 4 kt METAR LFBD 050800Z AUTO 11004KT 7000 NSC 02/01 Q1018 TEMPO 0500 FG VV///
08:30
M
1 °C 7 km - 090° 090° 4 kt METAR LFBD 050730Z AUTO 09004KT 7000 NSC 01/01 Q1017 TEMPO 0500 FG VV///
08:00
M
1 °C 7 km - 110° 110° 4 kt METAR LFBD 050700Z AUTO 11004KT 7000 NSC 01/01 Q1017 TEMPO 0500 FG VV///
07:30
M
1 °C 6 km - 110° 110° 5 kt METAR LFBD 050630Z AUTO 11005KT 6000 NSC 01/01 Q1017 TEMPO 0500 FG VV///
07:00
M
1 °C 6 km - 110° 110° 4 kt METAR LFBD 050600Z AUTO 11004KT 6000 NSC 01/01 Q1017 TEMPO 0500 FG VV///
06:30
M
1 °C 7 km - 110° 110° 4 kt METAR LFBD 050530Z AUTO 11004KT 7000 NSC 01/01 Q1016 TEMPO 0500 FG VV///
06:00
M
2 °C 6 km - 110° 110° 4 kt METAR LFBD 050500Z AUTO 11004KT 6000 NSC 02/01 Q1016 TEMPO 0500 FG VV///
05:30
M
2 °C 6 km - 100° 100° 4 kt METAR LFBD 050430Z AUTO 10004KT 6000 NSC 02/02 Q1016 TEMPO 0500 FG VV///
05:00
V
2 °C 8 km - 100° 100° 4 kt METAR LFBD 050400Z AUTO 10004KT 8000 NSC 02/02 Q1016 TEMPO 0500 FG VV///
04:30
V
2 °C 10 km+ - 110° 110° 5 kt METAR LFBD 050330Z AUTO 11005KT CAVOK 02/02 Q1016 TEMPO 0500 FG VV///
04:00
V
2 °C 9 km - 140° 140° 5 kt METAR LFBD 050300Z AUTO 14005KT 9000 NSC 02/02 Q1016 TEMPO 0500 FG VV///
03:30
V
2 °C 8 km - 120° 120° 5 kt METAR LFBD 050230Z AUTO 12005KT 8000 NSC 02/02 Q1016 TEMPO 0500 FG VV///
03:00
V
3 °C 9 km - 110° 110° 5 kt METAR LFBD 050200Z AUTO 11005KT 9000 NSC 03/02 Q1015 TEMPO 0500 FG VV///
02:30
V
3 °C 8 km - 110° 110° 4 kt METAR LFBD 050130Z AUTO 11004KT 8000 NSC 03/02 Q1015 TEMPO 0500 FG VV///
02:00
M
3 °C 7 km - 120° 120° 3 kt METAR LFBD 050100Z AUTO 12003KT 7000 NSC 03/02 Q1015 TEMPO 0500 FG VV///
01:30
M
3 °C 7 km - 080° 080° 3 kt METAR LFBD 050030Z AUTO 08003KT 7000 NSC 03/03 Q1015 TEMPO 0500 FG VV///
01:00
V
3 °C 10 km+ - 100° 100° 3 kt METAR LFBD 050000Z AUTO 10003KT CAVOK 03/03 Q1015 TEMPO 3000 BR
00:30
V
3 °C 10 km+ - 110° 110° 4 kt METAR LFBD 042330Z AUTO 11004KT CAVOK 03/03 Q1015 TEMPO 3000 BR
00:00
V
4 °C 10 km+ - 140° 140° 3 kt METAR LFBD 042300Z AUTO 14003KT 9999 FEW048 04/03 Q1015 TEMPO 3000 BR

4 de diciembre de 2022

Hora Código Tiempo Temp. Visibilidad Cielo nuboso Viento METAR/SPECI
23:30
M
4 °C 7 km - 140° 140° 4 kt METAR LFBD 042230Z AUTO 14004KT 7000 NSC 04/03 Q1014 TEMPO 3000 BR
23:00
M
4 °C 6 km - 100° 100° 3 kt METAR LFBD 042200Z AUTO 10003KT 6000 NSC 04/04 Q1014 TEMPO 3000 BR
22:30
L
4 °C 1 km - 130° 130° 3 kt METAR LFBD 042130Z AUTO 13003KT 5000 1000 R23/P2300 R05/1400D R29/P2300 BR NSC 04/03 Q1014 NOSIG
22:00
V
4 °C 8 km - 120° 120° 5 kt METAR LFBD 042100Z AUTO 12005KT 8000 NSC 04/04 Q1014 TEMPO 3000 MIFG
21:30
V
4 °C 9 km - 090° 090° 3 kt METAR LFBD 042030Z AUTO 09003KT 9000 NSC 04/04 Q1014 TEMPO 3000 MIFG
21:00
V
5 °C 10 km+ - 140° 140° 3 kt METAR LFBD 042000Z AUTO 14003KT CAVOK 05/04 Q1013 NOSIG
20:30
V
5 °C 10 km+ - 160° 160° 5 kt METAR LFBD 041930Z AUTO 16005KT CAVOK 05/04 Q1013 NOSIG
20:00
V
6 °C 10 km+ - 150° 150° 4 kt METAR LFBD 041900Z AUTO 15004KT 9999 FEW026 06/04 Q1013 NOSIG
19:30
V
6 °C 10 km+ - 130° 130° 4 kt METAR LFBD 041830Z AUTO 13004KT 9999 FEW035 SCT130 06/04 Q1012 NOSIG
19:00
V
6 °C 10 km+ - 140° 140° 3 kt METAR LFBD 041800Z AUTO 14003KT 9999 SCT039 SCT048 06/04 Q1012 NOSIG
18:30
V
7 °C 10 km+ 3.500 ft 110° 110° 4 kt METAR LFBD 041730Z AUTO 11004KT 9999 BKN035 BKN050 07/04 Q1012 NOSIG
18:00
V
8 °C 10 km+ 3.900 ft 110° 110° 4 kt METAR LFBD 041700Z AUTO 11004KT 9999 BKN039 BKN049 OVC076 08/04 Q1012 NOSIG
17:30
V
8 °C 10 km+ 4.600 ft 110° 110° 4 kt METAR LFBD 041630Z AUTO 11004KT 9999 BKN046 OVC052 08/04 Q1011 NOSIG
17:00
V
8 °C 10 km+ 4.800 ft 120° 120° 3 kt METAR LFBD 041600Z AUTO 12003KT 9999 BKN048 BKN054 BKN150 08/04 Q1011 NOSIG
16:30
V
9 °C 10 km+ - 140° 140° 3 kt METAR LFBD 041530Z AUTO 14003KT CAVOK 09/04 Q1011 NOSIG
16:00
V
9 °C 10 km+ - 140° 140° 2 kt METAR LFBD 041500Z AUTO 14002KT 9999 FEW031 SCT160 09/04 Q1010 NOSIG
15:30
V
10 °C 10 km+ 4.800 ft 170° 170° 4 kt METAR LFBD 041430Z AUTO 17004KT 9999 FEW030 SCT042 BKN048 10/03 Q1010 NOSIG
15:00
V
11 °C 10 km+ - Var Var 2 kt METAR LFBD 041400Z AUTO VRB02KT 9999 FEW029 11/04 Q1010 NOSIG
14:30
V
11 °C 10 km+ - 180° 180° 4 kt METAR LFBD 041330Z AUTO 18004KT 140V280 9999 SCT025 11/04 Q1010 NOSIG
14:00
V
10 °C 10 km+ - 250° 250° 4 kt METAR LFBD 041300Z AUTO 25004KT 9999 FEW024 10/04 Q1010 NOSIG
13:30
M
9 °C 10 km+ 2.200 ft 240° 240° 6 kt METAR LFBD 041230Z AUTO 24006KT 180V260 9999 BKN022 09/04 Q1010 NOSIG
13:00
V
9 °C 10 km+ - 180° 180° 4 kt METAR LFBD 041200Z AUTO 18004KT 150V220 9999 FEW021 09/03 Q1010 NOSIG
12:30
V
9 °C 10 km+ - 170° 170° 7 kt METAR LFBD 041130Z AUTO 17007KT 150V210 9999 FEW019 09/04 Q1010 NOSIG
12:00
V
8 °C 10 km+ - 180° 180° 6 kt METAR LFBD 041100Z AUTO 18006KT 150V210 9999 FEW017 SCT032 08/04 Q1010 NOSIG
11:30
V
8 °C 10 km+ - 150° 150° 5 kt METAR LFBD 041030Z AUTO 15005KT 130V190 9999 FEW014 SCT030 08/04 Q1010 NOSIG
11:00
V
7 °C 10 km+ - 150° 150° 4 kt METAR LFBD 041000Z AUTO 15004KT 110V180 CAVOK 07/04 Q1010 TEMPO 1500 BKN002
10:30
V
6 °C 9 km - 160° 160° 3 kt METAR LFBD 040930Z AUTO 16003KT 9000 FEW027 06/04 Q1010 TEMPO 1500 BKN002
10:00
M
5 °C 6 km - 150° 150° 3 kt METAR LFBD 040900Z AUTO 15003KT 6000 FEW028 05/03 Q1010 TEMPO 1500 BKN002
09:30
I
3 °C 4,6 km - 130° 130° 4 kt METAR LFBD 040830Z AUTO 13004KT 4600 BR SCT028 03/03 Q1010 TEMPO 1500 BKN002
09:00
I
3 °C 4,6 km 2.900 ft 160° 160° 3 kt METAR LFBD 040800Z AUTO 16003KT 120V180 4600 BR OVC029 03/03 Q1010 TEMPO 1500 BKN002
08:30
I
3 °C 4,9 km 2.600 ft Var Var 1 kt METAR LFBD 040730Z AUTO VRB01KT 4900 BR OVC026 03/03 Q1009 TEMPO 1500 BKN002
08:00
M
3 °C 5 km 2.500 ft 100° 100° 3 kt METAR LFBD 040700Z AUTO 10003KT 5000 BR OVC025 03/02 Q1009 TEMPO 1500 BKN002
07:30
M
2 °C 5 km 2.600 ft Var 000° 0 kt METAR LFBD 040630Z AUTO 00000KT 5000 BR OVC026 02/02 Q1009 TEMPO 1500 BKN002
07:00
M
2 °C 5 km 2.800 ft Var 000° 0 kt METAR LFBD 040600Z AUTO 00000KT 5000 BR BKN028 BKN044 OVC170 02/02 Q1009 TEMPO 1500 BKN002
06:30
M
2 °C 5 km 4.400 ft 170° 170° 2 kt METAR LFBD 040530Z AUTO 17002KT 5000 BR SCT029 BKN044 BKN140 02/01 Q1009 TEMPO 0600 FG VV///
06:00
M
2 °C 6 km 2.900 ft Var 000° 0 kt METAR LFBD 040500Z AUTO 00000KT 6000 BKN029 BKN180 02/01 Q1009 TEMPO 0600 FG VV///
05:30
M
2 °C 7 km 2.800 ft 270° 270° 1 kt METAR LFBD 040430Z AUTO 27001KT 7000 OVC028 02/02 Q1009 TEMPO 0600 FG VV///
05:00
M
2 °C 6 km 2.900 ft 270° 270° 1 kt METAR LFBD 040400Z AUTO 27001KT 6000 OVC029 02/01 Q1009 TEMPO 0600 FG VV///
04:30
M
1 °C 6 km 3.000 ft Var 000° 0 kt METAR LFBD 040330Z AUTO 00000KT 6000 BKN030 OVC037 01/01 Q1009 TEMPO 0600 FG VV///
04:00
M
1 °C 5 km 3.300 ft 260° 260° 1 kt METAR LFBD 040300Z AUTO 26001KT 5000 R05/1100D BR BKN033 BKN120 BKN140 01/01 Q1009 TEMPO 2000 BR
03:30
I
1 °C 2 km 14.000 ft Var 000° 0 kt METAR LFBD 040230Z AUTO 00000KT 5000 2000 BR FEW028 BKN140 BKN170 01/00 Q1008 TEMPO 0800 BCFG
03:00
M
1 °C 6 km 2.700 ft Var 000° 0 kt METAR LFBD 040200Z AUTO 00000KT 6000 BKN027 01/01 Q1009 TEMPO 0800 BCFG
02:30
L
1 °C 400 m 2.700 ft Var 000° 0 kt METAR LFBD 040130Z AUTO 00000KT 4400 0400 R23/P2300 R05/0550N R29/P2300 BCFG BKN027 BKN040 01/01 Q1009 TEMPO 0800 BCFG
02:00
L
2 °C 900 m 6.400 ft Var 000° 0 kt METAR LFBD 040100Z AUTO 00000KT 5000 0900 R23/P2300 R05/1200D R29/P2300 BCFG FEW027 SCT040 BKN064 02/02 Q1009 TEMPO 0800 BCFG
01:30
I
1 °C 4,1 km 2.800 ft Var 000° 0 kt METAR LFBD 040030Z AUTO 00000KT 4100 R05/1000D R29/1400N BR BKN028 BKN066 OVC150 01/00 Q1009 TEMPO 0800 BCFG
01:00
M
1 °C 6 km 2.900 ft Var Var 1 kt METAR LFBD 040000Z AUTO VRB01KT 6000 BKN029 BKN066 01/00 Q1009 TEMPO 0800 BCFG
00:30
L
1 °C 700 m - 340° 340° 1 kt METAR LFBD 032330Z AUTO 34001KT 4800 0700 R23/P2300 R05/1000D R29/P2300 BCFG SCT029 SCT062 01/00 Q1009 TEMPO 0800 BCFG
00:00
L
1 °C 600 m 6.400 ft Var Var 2 kt METAR LFBD 032300Z AUTO VRB02KT 3800 0600 R23/0750D R05/1300D R29/P2300 BCFG FEW031 BKN064 01/00 Q1009 TEMPO 0800 BCFG

3 de diciembre de 2022

Hora Código Tiempo Temp. Visibilidad Cielo nuboso Viento METAR/SPECI
23:30
L
1 °C 600 m - Var 000° 0 kt METAR LFBD 032230Z AUTO 00000KT 6000 0600 R23/P2300 R05/0550D R29/P2300 BCFG NSC 01/M00 Q1009 TEMPO 2000 MIFG
23:00
L
2 °C 1 km - Var Var 1 kt METAR LFBD 032200Z AUTO VRB01KT 6000 1000 R23/P2300 R05/1100D R29/P2300 NSC 02/01 Q1009 TEMPO 2000 MIFG
22:30
I
2 °C 2,3 km - 320° 320° 2 kt METAR LFBD 032130Z AUTO 32002KT 5000 2300 BR NSC 02/01 Q1009 TEMPO 2000 MIFG
22:00
I
3 °C 2,3 km - Var Var 1 kt METAR LFBD 032100Z AUTO VRB01KT 7000 2300 NSC 03/02 Q1009 TEMPO 2000 MIFG
21:30
V
4 °C 10 km+ - Var Var 1 kt METAR LFBD 032030Z AUTO VRB01KT CAVOK 04/02 Q1009 TEMPO 2000 MIFG
21:00
V
5 °C 10 km+ - 050° 050° 3 kt METAR LFBD 032000Z AUTO 05003KT 9999 FEW025 05/03 Q1009 TEMPO 2000 MIFG
20:30
M
6 °C 10 km+ 2.600 ft 030° 030° 6 kt METAR LFBD 031930Z AUTO 03006KT 9999 OVC026 06/03 Q1009 TEMPO 2000 MIFG
20:00
M
5 °C 10 km+ 2.700 ft 040° 040° 3 kt METAR LFBD 031900Z AUTO 04003KT 9999 BKN027 BKN096 BKN190 05/03 Q1009 BECMG 4500 BR OVC005
19:30
V
6 °C 10 km+ - 020° 020° 4 kt METAR LFBD 031830Z AUTO 02004KT 9999 FEW033 SCT074 06/03 Q1009 BECMG 4500 BR OVC005
19:00
V
6 °C 10 km+ 3.000 ft 050° 050° 6 kt METAR LFBD 031800Z AUTO 05006KT 9999 BKN030 OVC035 06/03 Q1009 BECMG 4500 BR OVC005
18:30
V
6 °C 10 km+ 3.400 ft 060° 060° 4 kt METAR LFBD 031730Z AUTO 06004KT 020V090 9999 FEW025 BKN034 06/03 Q1009 NOSIG
18:00
V
6 °C 10 km+ 3.700 ft 030° 030° 4 kt METAR LFBD 031700Z AUTO 03004KT 9999 FEW028 BKN037 06/03 Q1009 NOSIG
17:30
V
7 °C 10 km+ 3.500 ft 030° 030° 5 kt METAR LFBD 031630Z AUTO 03005KT 9999 SCT026 OVC035 07/03 Q1009 NOSIG
17:00
M
7 °C 10 km+ 2.900 ft 040° 040° 5 kt METAR LFBD 031600Z AUTO 04005KT 9999 OVC029 07/03 Q1008 NOSIG
16:30
M
7 °C 10 km+ 2.500 ft 050° 050° 6 kt METAR LFBD 031530Z AUTO 05006KT 030V090 9999 BKN025 OVC033 07/03 Q1008 NOSIG
16:00
M
7 °C 10 km+ 2.800 ft 100° 100° 3 kt METAR LFBD 031500Z AUTO 10003KT 070V130 9999 FEW022 BKN028 OVC033 07/02 Q1008 NOSIG
15:30
M
7 °C 10 km+ 2.200 ft 060° 060° 6 kt METAR LFBD 031430Z AUTO 06006KT 9999 BKN022 OVC028 07/03 Q1008 NOSIG
15:00
M
7 °C 10 km+ 2.600 ft 090° 090° 4 kt METAR LFBD 031400Z AUTO 09004KT 050V130 9999 BKN026 BKN031 07/02 Q1008 TEMPO 4000 -RADZ OVC004
14:30
M
7 °C 10 km+ 2.400 ft 070° 070° 4 kt METAR LFBD 031330Z AUTO 07004KT 020V140 9999 BKN024 07/02 Q1008 TEMPO 4000 -RADZ OVC004
14:00
V
7 °C 10 km+ - 070° 070° 4 kt METAR LFBD 031300Z AUTO 07004KT 030V140 9999 FEW022 07/02 Q1009 TEMPO 4000 -RADZ OVC004
13:30
V
7 °C 10 km+ - 060° 060° 6 kt METAR LFBD 031230Z AUTO 06006KT 030V090 9999 FEW021 SCT027 07/02 Q1009 TEMPO 4000 -RADZ OVC004
13:00
M
7 °C 10 km+ 2.100 ft 100° 100° 4 kt METAR LFBD 031200Z AUTO 10004KT 050V140 9999 BKN021 07/03 Q1009 TEMPO 4000 -RADZ OVC004
12:30
M
6 °C 10 km+ 2.000 ft 070° 070° 6 kt METAR LFBD 031130Z AUTO 07006KT 030V090 9999 BKN020 06/02 Q1009 TEMPO 4000 -RADZ OVC004
12:00
V
6 °C 10 km+ - 050° 050° 4 kt METAR LFBD 031100Z AUTO 05004KT 010V070 9999 SCT018 06/02 Q1010 TEMPO 4000 -RADZ OVC004
11:30
M
6 °C 10 km+ 1.400 ft 080° 080° 5 kt METAR LFBD 031030Z AUTO 08005KT 050V120 9999 BKN014 BKN023 06/02 Q1010 TEMPO 4000 -RADZ OVC004
11:00
M
6 °C 10 km+ 1.700 ft 070° 070° 5 kt METAR LFBD 031000Z AUTO 07005KT 010V100 9999 SCT011 BKN017 OVC022 06/03 Q1010 TEMPO 4000 -RADZ OVC004

Nosotros y terceros seguimos tu comportamiento en Internet en nuestro sitio web con cookies. Si continúas, asumimos que estás de acuerdo con nuestra Política de cookies.